sensor_id;sensor_type;location;lat;lon;timestamp;P1;durP1;ratioP1;P2;durP2;ratioP2
74213;SDS011;62576;55.694;37.494;2022-10-31T00:02:01;6.43;;;0.82;;
74213;SDS011;62576;55.694;37.494;2022-10-31T00:04:31;1.98;;;0.60;;
74213;SDS011;62576;55.694;37.494;2022-10-31T00:07:01;1.20;;;0.65;;
74213;SDS011;62576;55.694;37.494;2022-10-31T00:09:31;1.75;;;0.50;;
74213;SDS011;62576;55.694;37.494;2022-10-31T00:12:03;2.00;;;0.80;;
74213;SDS011;62576;55.694;37.494;2022-10-31T00:14:33;1.73;;;0.50;;
74213;SDS011;62576;55.694;37.494;2022-10-31T00:17:03;2.00;;;0.73;;
74213;SDS011;62576;55.694;37.494;2022-10-31T00:19:33;1.88;;;0.47;;
74213;SDS011;62576;55.694;37.494;2022-10-31T00:22:03;3.03;;;1.05;;
74213;SDS011;62576;55.694;37.494;2022-10-31T00:24:33;1.02;;;0.60;;
74213;SDS011;62576;55.694;37.494;2022-10-31T00:27:05;2.35;;;0.70;;
74213;SDS011;62576;55.694;37.494;2022-10-31T00:29:35;1.73;;;0.80;;
74213;SDS011;62576;55.694;37.494;2022-10-31T00:32:04;1.42;;;0.52;;
74213;SDS011;62576;55.694;37.494;2022-10-31T00:34:34;2.50;;;0.75;;
74213;SDS011;62576;55.694;37.494;2022-10-31T00:37:04;0.30;;;0.30;;
74213;SDS011;62576;55.694;37.494;2022-10-31T00:39:31;1.88;;;0.77;;
74213;SDS011;62576;55.694;37.494;2022-10-31T00:42:01;1.65;;;0.50;;
74213;SDS011;62576;55.694;37.494;2022-10-31T00:44:32;1.42;;;0.55;;
74213;SDS011;62576;55.694;37.494;2022-10-31T00:47:02;1.08;;;0.68;;
74213;SDS011;62576;55.694;37.494;2022-10-31T00:49:32;0.55;;;0.40;;
74213;SDS011;62576;55.694;37.494;2022-10-31T00:52:02;1.65;;;0.60;;
74213;SDS011;62576;55.694;37.494;2022-10-31T00:54:32;1.08;;;0.63;;
74213;SDS011;62576;55.694;37.494;2022-10-31T00:57:02;1.30;;;0.60;;
74213;SDS011;62576;55.694;37.494;2022-10-31T00:59:33;0.95;;;0.60;;
74213;SDS011;62576;55.694;37.494;2022-10-31T01:02:03;3.28;;;0.88;;
74213;SDS011;62576;55.694;37.494;2022-10-31T01:04:33;2.53;;;0.63;;
74213;SDS011;62576;55.694;37.494;2022-10-31T01:07:03;2.72;;;0.40;;
74213;SDS011;62576;55.694;37.494;2022-10-31T01:09:33;0.75;;;0.43;;
74213;SDS011;62576;55.694;37.494;2022-10-31T01:12:03;0.60;;;0.40;;
74213;SDS011;62576;55.694;37.494;2022-10-31T01:14:38;2.78;;;0.60;;
74213;SDS011;62576;55.694;37.494;2022-10-31T01:17:15;0.63;;;0.30;;
74213;SDS011;62576;55.694;37.494;2022-10-31T01:19:45;4.50;;;0.60;;
74213;SDS011;62576;55.694;37.494;2022-10-31T01:22:15;1.35;;;0.50;;
74213;SDS011;62576;55.694;37.494;2022-10-31T01:24:45;1.52;;;0.55;;
74213;SDS011;62576;55.694;37.494;2022-10-31T01:27:15;2.38;;;1.10;;
74213;SDS011;62576;55.694;37.494;2022-10-31T01:29:47;2.35;;;1.00;;
74213;SDS011;62576;55.694;37.494;2022-10-31T01:32:18;3.90;;;1.02;;
74213;SDS011;62576;55.694;37.494;2022-10-31T01:34:48;1.92;;;0.60;;
74213;SDS011;62576;55.694;37.494;2022-10-31T01:37:18;1.55;;;0.63;;
74213;SDS011;62576;55.694;37.494;2022-10-31T01:39:45;2.80;;;0.85;;
74213;SDS011;62576;55.694;37.494;2022-10-31T01:42:15;2.92;;;0.70;;
74213;SDS011;62576;55.694;37.494;2022-10-31T01:44:57;3.47;;;0.82;;
74213;SDS011;62576;55.694;37.494;2022-10-31T01:47:31;3.15;;;0.60;;
74213;SDS011;62576;55.694;37.494;2022-10-31T01:50:10;1.98;;;0.80;;
74213;SDS011;62576;55.694;37.494;2022-10-31T01:52:43;0.80;;;0.60;;
74213;SDS011;62576;55.694;37.494;2022-10-31T01:55:17;1.33;;;0.60;;
74213;SDS011;62576;55.694;37.494;2022-10-31T01:57:52;1.05;;;0.57;;
74213;SDS011;62576;55.694;37.494;2022-10-31T02:00:25;1.73;;;0.93;;
74213;SDS011;62576;55.694;37.494;2022-10-31T02:02:56;2.53;;;1.02;;
74213;SDS011;62576;55.694;37.494;2022-10-31T02:05:27;2.33;;;1.17;;
74213;SDS011;62576;55.694;37.494;2022-10-31T02:07:57;8.13;;;1.20;;
74213;SDS011;62576;55.694;37.494;2022-10-31T02:10:31;2.28;;;1.20;;
74213;SDS011;62576;55.694;37.494;2022-10-31T02:13:04;4.05;;;1.60;;
74213;SDS011;62576;55.694;37.494;2022-10-31T02:15:38;4.57;;;2.08;;
74213;SDS011;62576;55.694;37.494;2022-10-31T02:18:09;2.95;;;1.58;;
74213;SDS011;62576;55.694;37.494;2022-10-31T02:20:41;4.13;;;1.90;;
74213;SDS011;62576;55.694;37.494;2022-10-31T02:23:26;5.85;;;1.60;;
74213;SDS011;62576;55.694;37.494;2022-10-31T02:32:27;2.92;;;1.00;;
74213;SDS011;62576;55.694;37.494;2022-10-31T02:35:05;4.18;;;1.00;;
74213;SDS011;62576;55.694;37.494;2022-10-31T02:37:43;3.30;;;0.90;;
74213;SDS011;62576;55.694;37.494;2022-10-31T02:40:19;5.00;;;1.27;;
74213;SDS011;62576;55.694;37.494;2022-10-31T02:42:56;2.90;;;0.60;;
74213;SDS011;62576;55.694;37.494;2022-10-31T02:45:32;2.92;;;0.70;;
74213;SDS011;62576;55.694;37.494;2022-10-31T02:48:12;3.33;;;1.20;;
74213;SDS011;62576;55.694;37.494;2022-10-31T02:50:49;6.72;;;0.95;;
74213;SDS011;62576;55.694;37.494;2022-10-31T02:53:22;2.58;;;1.00;;
74213;SDS011;62576;55.694;37.494;2022-10-31T02:58:42;3.20;;;0.90;;
74213;SDS011;62576;55.694;37.494;2022-10-31T03:04:20;1.15;;;0.70;;
74213;SDS011;62576;55.694;37.494;2022-10-31T03:07:12;2.70;;;1.15;;
74213;SDS011;62576;55.694;37.494;2022-10-31T03:09:51;1.25;;;0.93;;
74213;SDS011;62576;55.694;37.494;2022-10-31T03:12:30;3.45;;;1.20;;
74213;SDS011;62576;55.694;37.494;2022-10-31T03:15:11;1.77;;;0.70;;
74213;SDS011;62576;55.694;37.494;2022-10-31T03:17:46;3.67;;;1.35;;
74213;SDS011;62576;55.694;37.494;2022-10-31T03:20:26;3.53;;;1.20;;
74213;SDS011;62576;55.694;37.494;2022-10-31T03:23:00;4.07;;;1.70;;
74213;SDS011;62576;55.694;37.494;2022-10-31T03:25:31;4.30;;;1.52;;
74213;SDS011;62576;55.694;37.494;2022-10-31T03:28:04;2.97;;;1.42;;
74213;SDS011;62576;55.694;37.494;2022-10-31T03:30:35;5.55;;;2.33;;
74213;SDS011;62576;55.694;37.494;2022-10-31T03:33:05;6.20;;;2.00;;
74213;SDS011;62576;55.694;37.494;2022-10-31T03:35:41;5.65;;;1.45;;
74213;SDS011;62576;55.694;37.494;2022-10-31T03:38:14;5.75;;;2.28;;
74213;SDS011;62576;55.694;37.494;2022-10-31T03:40:44;10.40;;;3.00;;
74213;SDS011;62576;55.694;37.494;2022-10-31T03:43:18;7.15;;;2.45;;
74213;SDS011;62576;55.694;37.494;2022-10-31T03:45:53;7.82;;;2.95;;
74213;SDS011;62576;55.694;37.494;2022-10-31T03:48:24;5.03;;;1.65;;
74213;SDS011;62576;55.694;37.494;2022-10-31T03:50:57;8.00;;;2.08;;
74213;SDS011;62576;55.694;37.494;2022-10-31T03:53:34;5.80;;;2.20;;
74213;SDS011;62576;55.694;37.494;2022-10-31T03:56:10;2.58;;;1.30;;
74213;SDS011;62576;55.694;37.494;2022-10-31T03:58:48;3.47;;;1.17;;
74213;SDS011;62576;55.694;37.494;2022-10-31T04:01:27;6.75;;;2.63;;
74213;SDS011;62576;55.694;37.494;2022-10-31T04:04:01;6.05;;;2.33;;
74213;SDS011;62576;55.694;37.494;2022-10-31T04:06:33;9.18;;;3.17;;
74213;SDS011;62576;55.694;37.494;2022-10-31T04:09:05;9.43;;;3.22;;
74213;SDS011;62576;55.694;37.494;2022-10-31T04:11:40;10.57;;;3.10;;
74213;SDS011;62576;55.694;37.494;2022-10-31T04:14:14;7.07;;;3.42;;
74213;SDS011;62576;55.694;37.494;2022-10-31T04:16:44;6.85;;;3.28;;
74213;SDS011;62576;55.694;37.494;2022-10-31T04:19:14;7.30;;;3.25;;
74213;SDS011;62576;55.694;37.494;2022-10-31T04:21:46;2.55;;;1.70;;
74213;SDS011;62576;55.694;37.494;2022-10-31T04:24:15;7.53;;;2.90;;
74213;SDS011;62576;55.694;37.494;2022-10-31T04:26:46;6.10;;;2.83;;
74213;SDS011;62576;55.694;37.494;2022-10-31T04:29:18;5.75;;;3.13;;
74213;SDS011;62576;55.694;37.494;2022-10-31T04:31:48;6.70;;;2.47;;
74213;SDS011;62576;55.694;37.494;2022-10-31T04:34:18;6.55;;;2.17;;
74213;SDS011;62576;55.694;37.494;2022-10-31T04:36:49;2.88;;;1.55;;
74213;SDS011;62576;55.694;37.494;2022-10-31T04:39:19;4.95;;;1.65;;
74213;SDS011;62576;55.694;37.494;2022-10-31T04:41:48;4.45;;;1.98;;
74213;SDS011;62576;55.694;37.494;2022-10-31T04:44:18;3.25;;;1.30;;
74213;SDS011;62576;55.694;37.494;2022-10-31T04:46:48;4.25;;;2.38;;
74213;SDS011;62576;55.694;37.494;2022-10-31T04:49:18;3.72;;;2.30;;
74213;SDS011;62576;55.694;37.494;2022-10-31T04:51:52;3.83;;;1.95;;
74213;SDS011;62576;55.694;37.494;2022-10-31T04:54:22;3.88;;;1.75;;
74213;SDS011;62576;55.694;37.494;2022-10-31T04:56:52;5.57;;;1.52;;
74213;SDS011;62576;55.694;37.494;2022-10-31T04:59:22;6.95;;;1.77;;
74213;SDS011;62576;55.694;37.494;2022-10-31T05:01:52;4.78;;;1.42;;
74213;SDS011;62576;55.694;37.494;2022-10-31T05:04:22;4.75;;;1.70;;
74213;SDS011;62576;55.694;37.494;2022-10-31T05:06:53;3.75;;;2.00;;
74213;SDS011;62576;55.694;37.494;2022-10-31T05:09:23;2.78;;;1.70;;
74213;SDS011;62576;55.694;37.494;2022-10-31T05:11:53;3.35;;;1.70;;
74213;SDS011;62576;55.694;37.494;2022-10-31T05:14:23;2.97;;;1.52;;
74213;SDS011;62576;55.694;37.494;2022-10-31T05:16:56;2.95;;;1.90;;
74213;SDS011;62576;55.694;37.494;2022-10-31T05:19:26;3.10;;;1.70;;
74213;SDS011;62576;55.694;37.494;2022-10-31T05:21:57;2.55;;;1.30;;
74213;SDS011;62576;55.694;37.494;2022-10-31T05:24:27;3.30;;;1.58;;
74213;SDS011;62576;55.694;37.494;2022-10-31T05:26:57;3.00;;;1.50;;
74213;SDS011;62576;55.694;37.494;2022-10-31T05:29:27;4.43;;;2.10;;
74213;SDS011;62576;55.694;37.494;2022-10-31T05:32:01;3.83;;;1.50;;
74213;SDS011;62576;55.694;37.494;2022-10-31T05:34:31;3.35;;;1.48;;
74213;SDS011;62576;55.694;37.494;2022-10-31T05:37:02;3.13;;;1.30;;
74213;SDS011;62576;55.694;37.494;2022-10-31T05:39:29;4.60;;;1.80;;
74213;SDS011;62576;55.694;37.494;2022-10-31T05:41:59;4.13;;;1.55;;
74213;SDS011;62576;55.694;37.494;2022-10-31T05:44:30;4.45;;;1.48;;
74213;SDS011;62576;55.694;37.494;2022-10-31T05:47:00;7.45;;;1.73;;
74213;SDS011;62576;55.694;37.494;2022-10-31T05:49:30;4.32;;;1.70;;
74213;SDS011;62576;55.694;37.494;2022-10-31T05:52:05;4.70;;;1.63;;
74213;SDS011;62576;55.694;37.494;2022-10-31T05:54:35;9.05;;;2.90;;
74213;SDS011;62576;55.694;37.494;2022-10-31T05:57:05;3.35;;;1.45;;
74213;SDS011;62576;55.694;37.494;2022-10-31T05:59:35;2.40;;;1.27;;
74213;SDS011;62576;55.694;37.494;2022-10-31T06:02:05;3.15;;;1.40;;
74213;SDS011;62576;55.694;37.494;2022-10-31T06:04:35;3.92;;;1.35;;
74213;SDS011;62576;55.694;37.494;2022-10-31T06:07:06;6.35;;;1.83;;
74213;SDS011;62576;55.694;37.494;2022-10-31T06:09:36;2.85;;;1.33;;
74213;SDS011;62576;55.694;37.494;2022-10-31T06:12:06;2.70;;;1.20;;
74213;SDS011;62576;55.694;37.494;2022-10-31T06:14:36;3.35;;;1.55;;
74213;SDS011;62576;55.694;37.494;2022-10-31T06:17:07;2.55;;;1.27;;
74213;SDS011;62576;55.694;37.494;2022-10-31T06:19:37;3.70;;;1.42;;
74213;SDS011;62576;55.694;37.494;2022-10-31T06:22:08;2.53;;;1.38;;
74213;SDS011;62576;55.694;37.494;2022-10-31T06:24:39;1.58;;;1.13;;
74213;SDS011;62576;55.694;37.494;2022-10-31T06:27:09;1.48;;;1.10;;
74213;SDS011;62576;55.694;37.494;2022-10-31T06:29:39;1.30;;;1.10;;
74213;SDS011;62576;55.694;37.494;2022-10-31T06:32:12;3.38;;;1.10;;
74213;SDS011;62576;55.694;37.494;2022-10-31T06:34:42;1.63;;;0.93;;
74213;SDS011;62576;55.694;37.494;2022-10-31T06:37:17;2.00;;;1.08;;
74213;SDS011;62576;55.694;37.494;2022-10-31T06:39:44;2.50;;;1.05;;
74213;SDS011;62576;55.694;37.494;2022-10-31T06:42:15;3.75;;;1.08;;
74213;SDS011;62576;55.694;37.494;2022-10-31T06:44:45;2.78;;;1.50;;
74213;SDS011;62576;55.694;37.494;2022-10-31T06:47:16;2.17;;;1.13;;
74213;SDS011;62576;55.694;37.494;2022-10-31T06:49:47;2.58;;;1.10;;
74213;SDS011;62576;55.694;37.494;2022-10-31T06:52:18;3.47;;;1.10;;
74213;SDS011;62576;55.694;37.494;2022-10-31T06:54:48;2.88;;;1.17;;
74213;SDS011;62576;55.694;37.494;2022-10-31T06:57:18;3.30;;;1.13;;
74213;SDS011;62576;55.694;37.494;2022-10-31T06:59:50;2.90;;;1.35;;
74213;SDS011;62576;55.694;37.494;2022-10-31T07:02:20;2.25;;;1.30;;
74213;SDS011;62576;55.694;37.494;2022-10-31T07:04:50;2.22;;;1.27;;
74213;SDS011;62576;55.694;37.494;2022-10-31T07:07:21;2.22;;;1.40;;
74213;SDS011;62576;55.694;37.494;2022-10-31T07:09:51;1.98;;;1.20;;
74213;SDS011;62576;55.694;37.494;2022-10-31T07:12:21;2.85;;;1.30;;
74213;SDS011;62576;55.694;37.494;2022-10-31T07:14:51;3.17;;;1.20;;
74213;SDS011;62576;55.694;37.494;2022-10-31T07:17:22;3.58;;;1.70;;
74213;SDS011;62576;55.694;37.494;2022-10-31T07:19:53;1.92;;;1.30;;
74213;SDS011;62576;55.694;37.494;2022-10-31T07:22:33;2.22;;;1.23;;
74213;SDS011;62576;55.694;37.494;2022-10-31T07:25:04;3.03;;;1.33;;
74213;SDS011;62576;55.694;37.494;2022-10-31T07:27:35;3.20;;;1.30;;
74213;SDS011;62576;55.694;37.494;2022-10-31T07:30:06;2.45;;;1.40;;
74213;SDS011;62576;55.694;37.494;2022-10-31T07:32:38;5.97;;;1.80;;
74213;SDS011;62576;55.694;37.494;2022-10-31T07:35:09;2.80;;;1.10;;
74213;SDS011;62576;55.694;37.494;2022-10-31T07:37:43;4.65;;;1.52;;
74213;SDS011;62576;55.694;37.494;2022-10-31T07:40:10;2.97;;;1.30;;
74213;SDS011;62576;55.694;37.494;2022-10-31T07:42:42;2.92;;;1.60;;
74213;SDS011;62576;55.694;37.494;2022-10-31T07:45:15;3.22;;;1.40;;
74213;SDS011;62576;55.694;37.494;2022-10-31T07:47:47;1.98;;;1.15;;
74213;SDS011;62576;55.694;37.494;2022-10-31T07:50:18;5.28;;;1.60;;
74213;SDS011;62576;55.694;37.494;2022-10-31T07:55:39;2.72;;;1.45;;
74213;SDS011;62576;55.694;37.494;2022-10-31T07:58:12;6.03;;;1.38;;
74213;SDS011;62576;55.694;37.494;2022-10-31T08:00:43;2.47;;;1.33;;
74213;SDS011;62576;55.694;37.494;2022-10-31T08:03:14;2.90;;;1.10;;
74213;SDS011;62576;55.694;37.494;2022-10-31T08:05:45;2.75;;;1.20;;
74213;SDS011;62576;55.694;37.494;2022-10-31T08:08:17;4.80;;;1.50;;
74213;SDS011;62576;55.694;37.494;2022-10-31T08:10:47;1.90;;;1.05;;
74213;SDS011;62576;55.694;37.494;2022-10-31T08:13:23;3.45;;;1.30;;
74213;SDS011;62576;55.694;37.494;2022-10-31T08:15:53;4.13;;;1.13;;
74213;SDS011;62576;55.694;37.494;2022-10-31T08:18:21;2.50;;;1.10;;
74213;SDS011;62576;55.694;37.494;2022-10-31T08:20:53;1.73;;;1.00;;
74213;SDS011;62576;55.694;37.494;2022-10-31T08:23:24;2.47;;;1.27;;
74213;SDS011;62576;55.694;37.494;2022-10-31T08:25:54;2.00;;;1.30;;
74213;SDS011;62576;55.694;37.494;2022-10-31T08:28:24;1.38;;;0.90;;
74213;SDS011;62576;55.694;37.494;2022-10-31T08:30:54;1.95;;;1.10;;
74213;SDS011;62576;55.694;37.494;2022-10-31T08:33:24;2.55;;;1.40;;
74213;SDS011;62576;55.694;37.494;2022-10-31T08:35:54;1.90;;;1.17;;
74213;SDS011;62576;55.694;37.494;2022-10-31T08:38:25;5.00;;;1.60;;
74213;SDS011;62576;55.694;37.494;2022-10-31T08:40:55;2.80;;;1.27;;
74213;SDS011;62576;55.694;37.494;2022-10-31T08:43:25;4.10;;;1.35;;
74213;SDS011;62576;55.694;37.494;2022-10-31T08:45:56;2.17;;;1.20;;
74213;SDS011;62576;55.694;37.494;2022-10-31T08:48:26;4.40;;;1.30;;
74213;SDS011;62576;55.694;37.494;2022-10-31T08:50:57;3.58;;;1.60;;
74213;SDS011;62576;55.694;37.494;2022-10-31T08:53:30;5.75;;;1.70;;
74213;SDS011;62576;55.694;37.494;2022-10-31T08:56:00;3.88;;;1.20;;
74213;SDS011;62576;55.694;37.494;2022-10-31T08:58:30;2.40;;;1.30;;
74213;SDS011;62576;55.694;37.494;2022-10-31T09:01:01;4.38;;;1.60;;
74213;SDS011;62576;55.694;37.494;2022-10-31T09:03:32;2.17;;;1.25;;
74213;SDS011;62576;55.694;37.494;2022-10-31T09:06:03;5.18;;;1.30;;
74213;SDS011;62576;55.694;37.494;2022-10-31T09:08:38;4.72;;;1.70;;
74213;SDS011;62576;55.694;37.494;2022-10-31T09:11:08;4.07;;;1.40;;
74213;SDS011;62576;55.694;37.494;2022-10-31T09:13:38;3.55;;;1.30;;
74213;SDS011;62576;55.694;37.494;2022-10-31T09:16:08;2.90;;;1.40;;
74213;SDS011;62576;55.694;37.494;2022-10-31T09:18:38;4.57;;;1.95;;
74213;SDS011;62576;55.694;37.494;2022-10-31T09:21:11;2.92;;;1.58;;
74213;SDS011;62576;55.694;37.494;2022-10-31T09:23:43;4.95;;;1.80;;
74213;SDS011;62576;55.694;37.494;2022-10-31T09:26:13;6.45;;;1.55;;
74213;SDS011;62576;55.694;37.494;2022-10-31T09:28:43;5.57;;;1.45;;
74213;SDS011;62576;55.694;37.494;2022-10-31T09:31:14;2.85;;;1.50;;
74213;SDS011;62576;55.694;37.494;2022-10-31T09:33:47;6.38;;;1.60;;
74213;SDS011;62576;55.694;37.494;2022-10-31T09:36:18;3.65;;;1.58;;
74213;SDS011;62576;55.694;37.494;2022-10-31T09:38:50;3.42;;;1.70;;
74213;SDS011;62576;55.694;37.494;2022-10-31T09:41:24;3.15;;;1.42;;
74213;SDS011;62576;55.694;37.494;2022-10-31T09:44:00;2.83;;;1.50;;
74213;SDS011;62576;55.694;37.494;2022-10-31T09:46:50;1.65;;;1.10;;
74213;SDS011;62576;55.694;37.494;2022-10-31T09:49:33;1.63;;;0.95;;
74213;SDS011;62576;55.694;37.494;2022-10-31T09:52:13;1.50;;;1.10;;
74213;SDS011;62576;55.694;37.494;2022-10-31T09:54:51;1.95;;;1.00;;
74213;SDS011;62576;55.694;37.494;2022-10-31T09:57:25;3.25;;;1.38;;
74213;SDS011;62576;55.694;37.494;2022-10-31T09:59:58;2.47;;;1.30;;
74213;SDS011;62576;55.694;37.494;2022-10-31T10:02:32;5.78;;;2.30;;
74213;SDS011;62576;55.694;37.494;2022-10-31T10:05:11;13.82;;;6.80;;
74213;SDS011;62576;55.694;37.494;2022-10-31T10:07:45;1.70;;;0.90;;
74213;SDS011;62576;55.694;37.494;2022-10-31T10:10:27;2.15;;;0.90;;
74213;SDS011;62576;55.694;37.494;2022-10-31T10:13:10;2.20;;;1.10;;
74213;SDS011;62576;55.694;37.494;2022-10-31T10:15:54;1.75;;;0.98;;
74213;SDS011;62576;55.694;37.494;2022-10-31T10:18:51;0.80;;;0.80;;
74213;SDS011;62576;55.694;37.494;2022-10-31T10:21:32;2.05;;;1.00;;
74213;SDS011;62576;55.694;37.494;2022-10-31T10:24:15;1.95;;;1.10;;
74213;SDS011;62576;55.694;37.494;2022-10-31T10:26:56;1.08;;;0.70;;
74213;SDS011;62576;55.694;37.494;2022-10-31T10:29:39;1.20;;;1.00;;
74213;SDS011;62576;55.694;37.494;2022-10-31T10:32:22;1.52;;;0.93;;
74213;SDS011;62576;55.694;37.494;2022-10-31T10:34:55;1.88;;;1.20;;
74213;SDS011;62576;55.694;37.494;2022-10-31T10:37:35;1.67;;;1.00;;
74213;SDS011;62576;55.694;37.494;2022-10-31T10:40:11;1.75;;;1.10;;
74213;SDS011;62576;55.694;37.494;2022-10-31T10:42:50;1.25;;;1.00;;
74213;SDS011;62576;55.694;37.494;2022-10-31T10:45:50;1.48;;;1.00;;
74213;SDS011;62576;55.694;37.494;2022-10-31T10:48:44;1.67;;;0.90;;
74213;SDS011;62576;55.694;37.494;2022-10-31T10:51:22;0.85;;;0.70;;
74213;SDS011;62576;55.694;37.494;2022-10-31T10:53:57;2.10;;;0.95;;
74213;SDS011;62576;55.694;37.494;2022-10-31T10:56:45;1.75;;;1.10;;
74213;SDS011;62576;55.694;37.494;2022-10-31T10:59:25;1.95;;;0.75;;
74213;SDS011;62576;55.694;37.494;2022-10-31T11:01:57;1.77;;;1.10;;
74213;SDS011;62576;55.694;37.494;2022-10-31T11:04:32;1.48;;;1.10;;
74213;SDS011;62576;55.694;37.494;2022-10-31T11:07:04;1.55;;;0.90;;
74213;SDS011;62576;55.694;37.494;2022-10-31T11:09:36;1.75;;;1.00;;
74213;SDS011;62576;55.694;37.494;2022-10-31T11:12:07;1.45;;;1.00;;
74213;SDS011;62576;55.694;37.494;2022-10-31T11:14:44;1.40;;;0.93;;
74213;SDS011;62576;55.694;37.494;2022-10-31T11:17:22;1.60;;;1.10;;
74213;SDS011;62576;55.694;37.494;2022-10-31T11:20:01;1.58;;;0.70;;
74213;SDS011;62576;55.694;37.494;2022-10-31T11:22:33;2.33;;;1.00;;
74213;SDS011;62576;55.694;37.494;2022-10-31T11:25:14;0.73;;;0.60;;
74213;SDS011;62576;55.694;37.494;2022-10-31T11:27:58;0.95;;;0.60;;
74213;SDS011;62576;55.694;37.494;2022-10-31T11:30:30;1.23;;;0.90;;
74213;SDS011;62576;55.694;37.494;2022-10-31T11:33:13;2.28;;;0.70;;
74213;SDS011;62576;55.694;37.494;2022-10-31T11:35:48;1.27;;;0.85;;
74213;SDS011;62576;55.694;37.494;2022-10-31T11:38:19;1.35;;;1.00;;
74213;SDS011;62576;55.694;37.494;2022-10-31T11:40:52;0.93;;;0.63;;
74213;SDS011;62576;55.694;37.494;2022-10-31T11:43:25;0.77;;;0.65;;
74213;SDS011;62576;55.694;37.494;2022-10-31T11:45:57;2.75;;;0.90;;
74213;SDS011;62576;55.694;37.494;2022-10-31T11:48:28;1.73;;;0.90;;
74213;SDS011;62576;55.694;37.494;2022-10-31T11:50:58;1.40;;;0.70;;
74213;SDS011;62576;55.694;37.494;2022-10-31T11:53:30;1.35;;;0.95;;
74213;SDS011;62576;55.694;37.494;2022-10-31T11:56:05;1.85;;;0.80;;
74213;SDS011;62576;55.694;37.494;2022-10-31T11:58:42;0.98;;;0.70;;
74213;SDS011;62576;55.694;37.494;2022-10-31T12:01:28;1.73;;;0.82;;
74213;SDS011;62576;55.694;37.494;2022-10-31T12:04:02;1.17;;;0.80;;
74213;SDS011;62576;55.694;37.494;2022-10-31T12:06:37;1.77;;;0.70;;
74213;SDS011;62576;55.694;37.494;2022-10-31T12:09:13;1.20;;;0.70;;
74213;SDS011;62576;55.694;37.494;2022-10-31T12:11:53;2.90;;;1.08;;
74213;SDS011;62576;55.694;37.494;2022-10-31T12:14:37;1.83;;;0.60;;
74213;SDS011;62576;55.694;37.494;2022-10-31T12:17:19;3.30;;;0.80;;
74213;SDS011;62576;55.694;37.494;2022-10-31T12:19:56;1.63;;;0.88;;
74213;SDS011;62576;55.694;37.494;2022-10-31T12:22:36;2.17;;;0.90;;
74213;SDS011;62576;55.694;37.494;2022-10-31T12:25:24;2.85;;;0.90;;
74213;SDS011;62576;55.694;37.494;2022-10-31T12:31:11;1.55;;;0.80;;
74213;SDS011;62576;55.694;37.494;2022-10-31T12:39:20;2.55;;;0.90;;
74213;SDS011;62576;55.694;37.494;2022-10-31T12:41:56;1.58;;;0.88;;
74213;SDS011;62576;55.694;37.494;2022-10-31T12:44:38;2.95;;;1.30;;
74213;SDS011;62576;55.694;37.494;2022-10-31T12:47:28;2.08;;;0.93;;
74213;SDS011;62576;55.694;37.494;2022-10-31T12:50:20;2.03;;;0.90;;
74213;SDS011;62576;55.694;37.494;2022-10-31T12:53:07;1.77;;;1.10;;
74213;SDS011;62576;55.694;37.494;2022-10-31T12:55:53;1.70;;;1.10;;
74213;SDS011;62576;55.694;37.494;2022-10-31T12:58:33;4.00;;;1.20;;
74213;SDS011;62576;55.694;37.494;2022-10-31T13:01:07;2.70;;;1.10;;
74213;SDS011;62576;55.694;37.494;2022-10-31T13:03:44;2.42;;;1.23;;
74213;SDS011;62576;55.694;37.494;2022-10-31T13:06:22;3.40;;;1.27;;
74213;SDS011;62576;55.694;37.494;2022-10-31T13:08:59;2.28;;;1.20;;
74213;SDS011;62576;55.694;37.494;2022-10-31T13:11:32;3.10;;;1.10;;
74213;SDS011;62576;55.694;37.494;2022-10-31T13:14:11;4.22;;;1.30;;
74213;SDS011;62576;55.694;37.494;2022-10-31T13:16:50;3.53;;;1.42;;
74213;SDS011;62576;55.694;37.494;2022-10-31T13:19:22;4.50;;;1.77;;
74213;SDS011;62576;55.694;37.494;2022-10-31T13:21:57;2.88;;;1.42;;
74213;SDS011;62576;55.694;37.494;2022-10-31T13:24:31;2.28;;;1.50;;
74213;SDS011;62576;55.694;37.494;2022-10-31T13:27:10;2.95;;;1.33;;
74213;SDS011;62576;55.694;37.494;2022-10-31T13:29:46;4.85;;;1.40;;
74213;SDS011;62576;55.694;37.494;2022-10-31T13:32:26;5.93;;;1.50;;
74213;SDS011;62576;55.694;37.494;2022-10-31T13:35:07;1.77;;;1.13;;
74213;SDS011;62576;55.694;37.494;2022-10-31T13:37:48;1.65;;;1.20;;
74213;SDS011;62576;55.694;37.494;2022-10-31T13:40:26;2.55;;;1.20;;
74213;SDS011;62576;55.694;37.494;2022-10-31T13:43:12;1.77;;;1.00;;
74213;SDS011;62576;55.694;37.494;2022-10-31T13:45:52;2.03;;;1.00;;
74213;SDS011;62576;55.694;37.494;2022-10-31T13:48:39;3.83;;;0.90;;
74213;SDS011;62576;55.694;37.494;2022-10-31T13:51:10;1.98;;;1.23;;
74213;SDS011;62576;55.694;37.494;2022-10-31T13:53:44;3.05;;;1.27;;
74213;SDS011;62576;55.694;37.494;2022-10-31T13:56:26;1.52;;;1.00;;
74213;SDS011;62576;55.694;37.494;2022-10-31T13:58:59;1.63;;;1.20;;
74213;SDS011;62576;55.694;37.494;2022-10-31T14:01:34;2.38;;;1.33;;
74213;SDS011;62576;55.694;37.494;2022-10-31T14:04:06;2.88;;;1.30;;
74213;SDS011;62576;55.694;37.494;2022-10-31T14:06:43;2.15;;;0.90;;
74213;SDS011;62576;55.694;37.494;2022-10-31T14:09:23;3.35;;;0.95;;
74213;SDS011;62576;55.694;37.494;2022-10-31T14:11:57;1.70;;;1.10;;
74213;SDS011;62576;55.694;37.494;2022-10-31T14:14:34;2.40;;;1.25;;
74213;SDS011;62576;55.694;37.494;2022-10-31T14:17:21;3.97;;;1.30;;
74213;SDS011;62576;55.694;37.494;2022-10-31T14:20:00;5.18;;;1.40;;
74213;SDS011;62576;55.694;37.494;2022-10-31T14:31:54;1.63;;;1.40;;
74213;SDS011;62576;55.694;37.494;2022-10-31T14:34:27;5.47;;;1.20;;
74213;SDS011;62576;55.694;37.494;2022-10-31T14:37:16;2.43;;;0.90;;
74213;SDS011;62576;55.694;37.494;2022-10-31T14:42:55;2.88;;;1.52;;
74213;SDS011;62576;55.694;37.494;2022-10-31T14:45:46;3.28;;;1.10;;
74213;SDS011;62576;55.694;37.494;2022-10-31T14:48:32;2.55;;;1.27;;
74213;SDS011;62576;55.694;37.494;2022-10-31T14:51:13;3.08;;;1.10;;
74213;SDS011;62576;55.694;37.494;2022-10-31T14:53:46;3.45;;;1.02;;
74213;SDS011;62576;55.694;37.494;2022-10-31T14:56:21;2.45;;;1.33;;
74213;SDS011;62576;55.694;37.494;2022-10-31T14:58:56;1.80;;;1.33;;
74213;SDS011;62576;55.694;37.494;2022-10-31T15:01:30;6.88;;;1.50;;
74213;SDS011;62576;55.694;37.494;2022-10-31T15:04:05;1.33;;;1.00;;
74213;SDS011;62576;55.694;37.494;2022-10-31T15:06:43;2.30;;;1.10;;
74213;SDS011;62576;55.694;37.494;2022-10-31T15:09:21;3.45;;;1.60;;
74213;SDS011;62576;55.694;37.494;2022-10-31T15:11:53;3.03;;;1.30;;
74213;SDS011;62576;55.694;37.494;2022-10-31T15:14:25;2.03;;;1.30;;
74213;SDS011;62576;55.694;37.494;2022-10-31T15:16:57;1.90;;;1.00;;
74213;SDS011;62576;55.694;37.494;2022-10-31T15:19:30;2.30;;;1.20;;
74213;SDS011;62576;55.694;37.494;2022-10-31T15:22:04;2.70;;;1.30;;
74213;SDS011;62576;55.694;37.494;2022-10-31T15:24:37;2.60;;;1.40;;
74213;SDS011;62576;55.694;37.494;2022-10-31T15:27:10;3.13;;;1.40;;
74213;SDS011;62576;55.694;37.494;2022-10-31T15:32:28;3.10;;;1.30;;
74213;SDS011;62576;55.694;37.494;2022-10-31T15:34:58;3.00;;;1.38;;
74213;SDS011;62576;55.694;37.494;2022-10-31T15:37:30;3.35;;;1.70;;
74213;SDS011;62576;55.694;37.494;2022-10-31T15:40:05;2.60;;;1.15;;
74213;SDS011;62576;55.694;37.494;2022-10-31T15:42:39;2.15;;;1.20;;
74213;SDS011;62576;55.694;37.494;2022-10-31T15:45:18;2.35;;;0.95;;
74213;SDS011;62576;55.694;37.494;2022-10-31T15:47:54;5.60;;;1.42;;
74213;SDS011;62576;55.694;37.494;2022-10-31T15:50:28;4.70;;;1.73;;
74213;SDS011;62576;55.694;37.494;2022-10-31T15:53:01;3.65;;;1.58;;